Rock Stream, New York
Current Conditions -  °F | °C
As of 5:26 AM on Thursday 23 Oct 2014 (Local Time) from KPEO Reporting Station
Overcast Overcast  
Wind Chill: 41°   Ceiling: 1800
Heat Index: 46°   Visibility: 10mi
Dew Point: 40°   Wind: 10mph
Humidity: 79%   Direction: 330°NNW
Pressure: 30.04"   Gusts: 17mph
Location:  42.47°N, 76.93°W
Report Text: KPEO 230926Z AUTO 33009G15KT 10SM BKN018 OVC033 08/04 A3004 RMK AO2 T00780044
Loading
Personal Weather Stations






























Interactive Weather Map
Tropical Storm Tracking
New forecast layout! Learn more

10-Day Weather Forecast

Advertisements
Track Severe Weather on mobile